createdAt,value
2023-03-17T00:01:55.946Z,8.07
2023-03-17T00:04:25.186Z,7.80
2023-03-17T00:06:53.334Z,7.93
2023-03-17T00:09:22.375Z,7.20
2023-03-17T00:11:50.369Z,7.27
2023-03-17T00:14:19.131Z,7.37
2023-03-17T00:16:52.739Z,7.20
2023-03-17T00:19:34.461Z,6.90
2023-03-17T00:22:03.417Z,7.10
2023-03-17T00:24:31.173Z,7.33
2023-03-17T00:26:58.933Z,7.57
2023-03-17T00:29:26.957Z,7.40
2023-03-17T00:31:56.578Z,7.70
2023-03-17T00:34:23.579Z,6.60
2023-03-17T00:36:51.713Z,6.83
2023-03-17T00:39:20.291Z,7.03
2023-03-17T00:44:14.578Z,6.80
2023-03-17T00:46:42.198Z,6.93
2023-03-17T00:51:46.022Z,7.20
2023-03-17T00:54:15.643Z,7.10
2023-03-17T00:56:44.324Z,8.03
2023-03-17T00:59:30.029Z,7.40
2023-03-17T01:01:57.556Z,7.13
2023-03-17T01:04:24.551Z,7.03
2023-03-17T01:06:53.017Z,7.23
2023-03-17T01:09:24.170Z,6.90
2023-03-17T01:11:51.207Z,6.30
2023-03-17T01:14:19.318Z,6.93
2023-03-17T01:16:47.795Z,6.47
2023-03-17T01:19:15.848Z,6.27
2023-03-17T01:21:43.080Z,6.33
2023-03-17T01:24:11.046Z,6.83
2023-03-17T01:26:39.030Z,6.90
2023-03-17T01:29:07.923Z,6.90
2023-03-17T01:31:36.316Z,7.00
2023-03-17T01:34:06.597Z,6.87
2023-03-17T01:36:34.358Z,6.80
2023-03-17T01:39:01.536Z,6.33
2023-03-17T01:41:28.543Z,6.50
2023-03-17T01:43:55.737Z,6.67
2023-03-17T01:46:31.811Z,7.13
2023-03-17T01:49:05.835Z,6.40
2023-03-17T01:52:07.538Z,6.43
2023-03-17T01:55:07.090Z,6.60
2023-03-17T01:57:50.882Z,6.40
2023-03-17T02:00:21.756Z,6.63
2023-03-17T02:02:52.163Z,6.07
2023-03-17T02:05:24.143Z,6.50
2023-03-17T02:07:52.122Z,6.13
2023-03-17T02:10:21.920Z,6.60
2023-03-17T02:12:53.122Z,6.20
2023-03-17T02:15:20.373Z,6.00
2023-03-17T02:17:47.654Z,6.57
2023-03-17T02:20:17.639Z,6.00
2023-03-17T02:22:52.586Z,6.30
2023-03-17T02:25:21.490Z,6.03
2023-03-17T02:27:54.835Z,6.17
2023-03-17T02:30:24.134Z,5.83
2023-03-17T02:32:51.642Z,6.07
2023-03-17T02:35:22.371Z,6.13
2023-03-17T02:37:49.390Z,5.90
2023-03-17T02:40:16.726Z,6.10
2023-03-17T02:42:43.738Z,5.87
2023-03-17T02:45:12.902Z,5.87
2023-03-17T02:47:41.486Z,5.20
2023-03-17T02:50:17.844Z,5.10
2023-03-17T02:52:44.881Z,5.33
2023-03-17T02:55:14.849Z,5.60
2023-03-17T02:57:41.961Z,5.40
2023-03-17T03:00:13.445Z,5.20
2023-03-17T03:02:41.770Z,5.23
2023-03-17T03:05:09.679Z,5.40
2023-03-17T03:07:36.701Z,5.10
2023-03-17T03:10:04.161Z,5.23
2023-03-17T03:12:31.188Z,5.20
2023-03-17T03:14:58.919Z,5.10
2023-03-17T03:17:26.432Z,5.60
2023-03-17T03:19:53.670Z,5.27
2023-03-17T03:22:20.780Z,5.00
2023-03-17T03:24:47.691Z,4.77
2023-03-17T03:27:14.682Z,5.00
2023-03-17T03:29:41.847Z,5.10
2023-03-17T03:32:09.349Z,4.70
2023-03-17T03:34:36.646Z,4.63
2023-03-17T03:37:03.594Z,4.67
2023-03-17T03:39:30.508Z,4.97
2023-03-17T03:41:58.418Z,5.33
2023-03-17T03:44:25.590Z,5.07
2023-03-17T03:46:53.460Z,5.33
2023-03-17T03:49:21.116Z,5.47
2023-03-17T03:51:48.059Z,5.50
2023-03-17T03:54:14.980Z,5.47
2023-03-17T03:56:41.906Z,5.47
2023-03-17T03:59:09.818Z,5.33
2023-03-17T04:01:36.762Z,5.27
2023-03-17T04:04:03.962Z,5.33
2023-03-17T04:06:30.899Z,5.27
2023-03-17T04:08:58.568Z,5.30
2023-03-17T04:11:25.973Z,5.40
2023-03-17T04:13:53.241Z,5.63
2023-03-17T04:16:20.416Z,5.27
2023-03-17T04:18:47.751Z,4.90
2023-03-17T04:21:18.506Z,4.57
2023-03-17T04:23:46.450Z,4.73
2023-03-17T04:26:13.768Z,5.30
2023-03-17T04:28:41.014Z,5.10
2023-03-17T04:31:12.136Z,4.90
2023-03-17T04:33:40.289Z,5.10
2023-03-17T04:36:08.503Z,5.07
2023-03-17T04:38:35.706Z,4.93
2023-03-17T04:41:02.724Z,4.70
2023-03-17T04:43:29.687Z,5.20
2023-03-17T04:45:56.965Z,4.80
2023-03-17T04:48:24.206Z,4.73
2023-03-17T04:50:51.433Z,4.87
2023-03-17T04:53:19.037Z,5.40
2023-03-17T04:55:46.092Z,5.23
2023-03-17T04:58:18.177Z,5.03
2023-03-17T05:00:55.814Z,5.30
2023-03-17T05:03:27.233Z,5.83
2023-03-17T05:05:55.573Z,4.70
2023-03-17T05:08:22.701Z,5.00
2023-03-17T05:10:50.080Z,4.80
2023-03-17T05:13:18.966Z,4.80
2023-03-17T05:15:50.641Z,4.80
2023-03-17T05:18:18.759Z,4.83
2023-03-17T05:20:45.739Z,5.17
2023-03-17T05:23:13.113Z,4.60
2023-03-17T05:25:41.658Z,4.93
2023-03-17T05:28:10.176Z,4.80
2023-03-17T05:30:37.676Z,5.17
2023-03-17T05:33:06.536Z,5.03
2023-03-17T05:35:33.885Z,4.90
2023-03-17T05:38:01.467Z,4.60
2023-03-17T05:40:29.149Z,4.67
2023-03-17T05:42:57.134Z,4.70
2023-03-17T05:45:24.495Z,4.90
2023-03-17T05:47:51.643Z,4.87
2023-03-17T05:50:19.327Z,5.00
2023-03-17T05:52:47.720Z,4.60
2023-03-17T05:55:15.010Z,4.70
2023-03-17T05:57:41.987Z,4.60
2023-03-17T06:00:11.715Z,5.13
2023-03-17T06:02:40.158Z,4.23
2023-03-17T06:05:08.953Z,5.07
2023-03-17T06:07:50.438Z,4.93
2023-03-17T06:10:20.634Z,4.77
2023-03-17T06:12:47.634Z,4.70
2023-03-17T06:15:16.657Z,4.80
2023-03-17T06:17:44.112Z,5.13
2023-03-17T06:20:12.063Z,5.20
2023-03-17T06:22:46.285Z,4.87
2023-03-17T06:25:18.989Z,5.13
2023-03-17T06:27:46.009Z,5.23
2023-03-17T06:30:13.751Z,5.10
2023-03-17T06:32:40.883Z,5.60
2023-03-17T06:35:08.370Z,5.50
2023-03-17T06:37:35.854Z,5.03
2023-03-17T06:40:05.593Z,5.30
2023-03-17T06:42:32.716Z,5.30
2023-03-17T06:44:59.703Z,4.83
2023-03-17T06:47:26.730Z,5.07
2023-03-17T06:49:53.912Z,4.50
2023-03-17T06:52:20.846Z,4.83
2023-03-17T06:54:47.964Z,5.10
2023-03-17T06:57:15.149Z,4.87
2023-03-17T06:59:42.137Z,4.83
2023-03-17T07:02:11.752Z,5.50
2023-03-17T07:04:39.022Z,4.33
2023-03-17T07:07:06.572Z,4.90
2023-03-17T07:09:34.693Z,4.60
2023-03-17T07:12:05.188Z,4.53
2023-03-17T07:14:34.626Z,5.00
2023-03-17T07:17:03.476Z,4.87
2023-03-17T07:19:31.312Z,4.87
2023-03-17T07:21:59.203Z,4.57
2023-03-17T07:24:26.668Z,4.90
2023-03-17T07:26:53.717Z,4.77
2023-03-17T07:29:22.734Z,4.90
2023-03-17T07:31:50.221Z,5.10
2023-03-17T07:34:17.943Z,4.93
2023-03-17T07:36:45.220Z,4.77
2023-03-17T07:39:13.041Z,4.73
2023-03-17T07:41:40.225Z,5.07
2023-03-17T07:44:11.543Z,4.80
2023-03-17T07:46:39.411Z,4.97
2023-03-17T07:49:06.498Z,4.67
2023-03-17T07:51:33.536Z,5.00
2023-03-17T07:54:06.495Z,4.70
2023-03-17T07:56:33.751Z,5.23
2023-03-17T07:59:01.133Z,4.70
2023-03-17T08:01:31.019Z,4.63
2023-03-17T08:03:58.138Z,4.87
2023-03-17T08:06:26.587Z,4.80
2023-03-17T08:08:55.314Z,4.63
2023-03-17T08:11:23.483Z,5.00
2023-03-17T08:13:51.023Z,5.17
2023-03-17T08:16:18.170Z,4.20
2023-03-17T08:18:46.382Z,4.40
2023-03-17T08:21:15.782Z,4.63
2023-03-17T08:23:43.259Z,4.40
2023-03-17T08:26:10.382Z,4.63
2023-03-17T08:28:37.568Z,4.13
2023-03-17T08:31:12.683Z,4.00
2023-03-17T08:33:42.730Z,4.20
2023-03-17T08:36:11.462Z,4.03
2023-03-17T08:38:40.644Z,4.00
2023-03-17T08:41:10.265Z,3.93
2023-03-17T08:43:38.373Z,4.00
2023-03-17T08:46:17.092Z,3.40
2023-03-17T08:48:45.338Z,3.20
2023-03-17T08:51:12.592Z,3.93
2023-03-17T08:53:40.405Z,3.80
2023-03-17T08:56:08.464Z,3.77
2023-03-17T08:58:39.867Z,3.63
2023-03-17T09:01:07.573Z,3.50
2023-03-17T09:03:34.523Z,3.50
2023-03-17T09:06:04.701Z,3.90
2023-03-17T09:08:31.814Z,3.80
2023-03-17T09:10:59.034Z,3.70
2023-03-17T09:13:27.592Z,4.23
2023-03-17T09:15:54.847Z,3.80
2023-03-17T09:18:22.333Z,4.00
2023-03-17T09:20:49.305Z,4.40
2023-03-17T09:23:16.610Z,4.57
2023-03-17T09:25:45.741Z,4.43
2023-03-17T09:28:13.551Z,4.17
2023-03-17T09:30:45.233Z,4.30
2023-03-17T09:33:13.958Z,4.03
2023-03-17T09:35:41.554Z,3.67
2023-03-17T09:38:10.004Z,4.10
2023-03-17T09:40:47.697Z,4.27
2023-03-17T09:44:11.263Z,4.23
2023-03-17T09:46:38.277Z,4.10
2023-03-17T09:49:10.816Z,4.50
2023-03-17T09:51:38.790Z,4.20
2023-03-17T09:54:15.454Z,4.10
2023-03-17T09:56:48.300Z,4.40
2023-03-17T09:59:35.556Z,4.10
2023-03-17T10:02:03.355Z,5.17
2023-03-17T10:04:30.779Z,4.10
2023-03-17T10:07:06.817Z,5.10
2023-03-17T10:09:47.128Z,5.17
2023-03-17T10:12:41.184Z,7.13
2023-03-17T10:15:18.506Z,4.40
2023-03-17T10:17:47.381Z,5.10
2023-03-17T10:20:32.315Z,4.60
2023-03-17T10:23:10.700Z,4.60
2023-03-17T10:25:38.274Z,4.77
2023-03-17T10:28:14.203Z,4.57
2023-03-17T10:30:41.204Z,4.10
2023-03-17T10:33:08.567Z,4.73
2023-03-17T10:35:40.583Z,3.63
2023-03-17T10:38:22.598Z,4.17
2023-03-17T10:41:02.488Z,3.80
2023-03-17T10:43:42.277Z,3.70
2023-03-17T10:46:24.465Z,3.60
2023-03-17T10:49:02.205Z,3.60
2023-03-17T10:51:35.827Z,3.80
2023-03-17T10:54:09.632Z,3.60
2023-03-17T10:56:39.675Z,3.77
2023-03-17T10:59:15.192Z,3.70
2023-03-17T11:01:51.661Z,3.60
2023-03-17T11:04:39.253Z,3.63
2023-03-17T11:07:27.245Z,3.40
2023-03-17T11:09:59.372Z,3.77
2023-03-17T11:12:36.775Z,3.70
2023-03-17T11:15:08.009Z,3.73
2023-03-17T11:17:54.550Z,3.83
2023-03-17T11:20:33.300Z,4.07
2023-03-17T11:23:17.251Z,3.90
2023-03-17T11:25:49.844Z,3.90
2023-03-17T11:28:23.868Z,4.10
2023-03-17T11:31:09.660Z,3.60
2023-03-17T11:33:55.235Z,3.70
2023-03-17T11:36:50.750Z,3.73
2023-03-17T11:39:25.273Z,3.60
2023-03-17T11:42:08.559Z,3.77
2023-03-17T11:44:50.847Z,3.83
2023-03-17T11:47:43.137Z,3.97
2023-03-17T11:50:22.364Z,3.90
2023-03-17T11:53:09.825Z,3.60
2023-03-17T11:55:45.455Z,4.30
2023-03-17T11:58:27.671Z,4.73
2023-03-17T12:01:00.827Z,4.30
2023-03-17T12:03:40.372Z,4.23
2023-03-17T12:06:25.740Z,3.80
2023-03-17T12:09:03.334Z,4.47
2023-03-17T12:11:33.014Z,4.50
2023-03-17T12:14:07.349Z,3.87
2023-03-17T12:16:52.595Z,3.60
2023-03-17T12:19:22.933Z,3.77
2023-03-17T12:22:01.723Z,4.00
2023-03-17T12:25:04.673Z,3.80
2023-03-17T12:27:44.283Z,3.57
2023-03-17T12:30:23.552Z,3.77
2023-03-17T12:33:13.636Z,3.60
2023-03-17T12:35:40.709Z,3.90
2023-03-17T12:38:31.106Z,3.73
2023-03-17T12:41:26.600Z,3.83
2023-03-17T12:44:01.545Z,3.90
2023-03-17T12:46:51.679Z,3.90
2023-03-17T12:49:52.686Z,3.63
2023-03-17T12:52:46.661Z,3.70
2023-03-17T12:55:17.078Z,3.90
2023-03-17T12:57:47.574Z,4.07
2023-03-17T13:00:29.744Z,4.40
2023-03-17T13:03:17.756Z,4.67
2023-03-17T13:05:52.852Z,4.30
2023-03-17T13:08:28.558Z,4.40
2023-03-17T13:11:26.201Z,4.40
2023-03-17T13:14:39.275Z,3.70
2023-03-17T13:17:29.106Z,3.63
2023-03-17T13:20:09.858Z,3.50
2023-03-17T13:23:00.632Z,3.80
2023-03-17T13:25:39.664Z,3.67
2023-03-17T13:28:12.564Z,3.50
2023-03-17T13:30:39.520Z,3.80
2023-03-17T13:33:12.306Z,3.63
2023-03-17T13:35:39.338Z,3.77
2023-03-17T13:38:37.452Z,3.73
2023-03-17T13:41:32.184Z,3.63
2023-03-17T13:44:33.571Z,3.75
2023-03-17T13:47:22.715Z,3.60
2023-03-17T13:49:51.667Z,3.73
2023-03-17T13:52:35.643Z,3.60
2023-03-17T13:55:20.673Z,3.73
2023-03-17T13:58:15.489Z,4.20
2023-03-17T14:00:46.910Z,3.80
2023-03-17T14:03:29.001Z,4.33
2023-03-17T14:05:56.970Z,3.93
2023-03-17T14:08:31.911Z,3.90
2023-03-17T14:11:02.905Z,4.43
2023-03-17T14:13:42.354Z,4.40
2023-03-17T14:16:09.558Z,4.20
2023-03-17T14:18:40.027Z,4.20
2023-03-17T14:21:19.985Z,4.43
2023-03-17T14:23:58.602Z,4.67
2023-03-17T14:26:29.149Z,5.20
2023-03-17T14:28:59.956Z,4.77
2023-03-17T14:31:29.651Z,4.83
2023-03-17T14:33:59.506Z,4.80
2023-03-17T14:36:28.878Z,4.70
2023-03-17T14:38:58.854Z,4.53
2023-03-17T14:41:28.106Z,4.70
2023-03-17T14:43:59.702Z,4.57
2023-03-17T14:46:30.767Z,4.37
2023-03-17T14:49:15.440Z,4.80
2023-03-17T14:51:43.269Z,4.57
2023-03-17T14:54:17.799Z,4.80
2023-03-17T14:56:57.892Z,4.70
2023-03-17T14:59:28.381Z,4.80
2023-03-17T15:02:00.804Z,4.80
2023-03-17T15:04:33.363Z,4.83
2023-03-17T15:07:07.629Z,5.00
2023-03-17T15:09:36.280Z,4.80
2023-03-17T15:12:21.949Z,4.87
2023-03-17T15:14:59.313Z,4.93
2023-03-17T15:17:35.120Z,4.97
2023-03-17T15:20:12.553Z,5.23
2023-03-17T15:22:42.954Z,5.00
2023-03-17T15:25:23.906Z,4.87
2023-03-17T15:27:51.348Z,5.00
2023-03-17T15:30:20.051Z,5.10
2023-03-17T15:33:03.734Z,4.87
2023-03-17T15:35:31.336Z,4.70
2023-03-17T15:37:58.389Z,4.90
2023-03-17T15:40:25.405Z,4.93
2023-03-17T15:42:52.740Z,4.27
2023-03-17T15:45:19.866Z,4.90
2023-03-17T15:47:47.422Z,4.67
2023-03-17T15:50:26.240Z,4.37
2023-03-17T15:52:55.685Z,4.23
2023-03-17T15:55:31.575Z,4.10
2023-03-17T15:57:59.251Z,4.10
2023-03-17T16:00:29.714Z,4.20
2023-03-17T16:03:00.076Z,4.07
2023-03-17T16:05:32.768Z,4.17
2023-03-17T16:07:59.982Z,3.87
2023-03-17T16:10:31.854Z,4.03
2023-03-17T16:13:00.541Z,3.90
2023-03-17T16:15:31.412Z,4.27
2023-03-17T16:18:01.665Z,4.20
2023-03-17T16:20:36.259Z,4.10
2023-03-17T16:23:18.570Z,4.40
2023-03-17T16:25:46.876Z,4.10
2023-03-17T16:28:15.657Z,4.30
2023-03-17T16:30:43.061Z,4.30
2023-03-17T16:33:22.286Z,4.60
2023-03-17T16:35:50.745Z,4.70
2023-03-17T16:38:20.542Z,4.33
2023-03-17T16:40:53.424Z,4.37
2023-03-17T16:43:28.117Z,4.83
2023-03-17T16:46:01.036Z,4.73
2023-03-17T16:48:28.498Z,4.60
2023-03-17T16:50:57.620Z,4.60
2023-03-17T16:53:25.173Z,4.37
2023-03-17T16:55:54.377Z,4.40
2023-03-17T16:58:23.550Z,4.50
2023-03-17T17:00:53.796Z,4.43
2023-03-17T17:03:20.899Z,4.37
2023-03-17T17:05:50.446Z,4.43
2023-03-17T17:08:19.868Z,4.70
2023-03-17T17:10:51.452Z,4.20
2023-03-17T17:13:20.471Z,4.40
2023-03-17T17:15:48.360Z,4.30
2023-03-17T17:18:27.295Z,4.40
2023-03-17T17:20:55.100Z,4.63
2023-03-17T17:23:25.246Z,4.70
2023-03-17T17:30:15.201Z,4.80
2023-03-17T17:32:44.115Z,4.73
2023-03-17T17:35:16.431Z,4.90
2023-03-17T17:37:47.002Z,4.30
2023-03-17T17:40:17.947Z,4.23
2023-03-17T17:42:49.104Z,4.60
2023-03-17T17:45:17.003Z,4.63
2023-03-17T17:47:45.932Z,4.60
2023-03-17T17:50:19.904Z,4.87
2023-03-17T17:52:48.061Z,4.70
2023-03-17T17:55:17.463Z,4.63
2023-03-17T17:57:46.431Z,4.47
2023-03-17T18:00:18.406Z,4.90
2023-03-17T18:02:46.578Z,4.80
2023-03-17T18:05:17.893Z,4.93
2023-03-17T18:07:46.025Z,4.53
2023-03-17T18:10:20.139Z,4.70
2023-03-17T18:12:48.671Z,4.53
2023-03-17T18:15:18.410Z,4.90
2023-03-17T18:17:50.266Z,4.97
2023-03-17T18:20:23.534Z,4.90
2023-03-17T18:22:52.884Z,4.77
2023-03-17T18:25:21.844Z,4.80
2023-03-17T18:27:50.219Z,5.17
2023-03-17T18:30:31.280Z,4.70
2023-03-17T18:33:07.063Z,5.17
2023-03-17T18:35:35.593Z,5.20
2023-03-17T18:38:04.964Z,5.10
2023-03-17T18:40:36.300Z,4.87
2023-03-17T18:43:05.248Z,4.50
2023-03-17T18:45:33.621Z,5.10
2023-03-17T18:48:01.903Z,5.03
2023-03-17T18:50:35.521Z,4.60
2023-03-17T18:53:06.477Z,4.67
2023-03-17T18:55:34.671Z,4.80
2023-03-17T18:58:02.736Z,4.80
2023-03-17T19:00:32.764Z,4.67
2023-03-17T19:03:02.201Z,4.93
2023-03-17T19:05:30.466Z,4.87
2023-03-17T19:08:01.396Z,4.47
2023-03-17T19:10:32.590Z,5.17
2023-03-17T19:13:01.566Z,5.00
2023-03-17T19:15:30.626Z,4.80
2023-03-17T19:18:01.342Z,5.30
2023-03-17T19:20:29.838Z,4.60
2023-03-17T19:22:58.542Z,5.20
2023-03-17T19:25:26.853Z,5.07
2023-03-17T19:27:56.416Z,5.00
2023-03-17T19:30:25.045Z,4.93
2023-03-17T19:32:54.368Z,4.83
2023-03-17T19:35:23.477Z,5.03
2023-03-17T19:37:54.520Z,5.30
2023-03-17T19:40:29.539Z,5.37
2023-03-17T19:42:59.914Z,4.60
2023-03-17T19:45:41.168Z,5.10
2023-03-17T19:48:12.093Z,4.90
2023-03-17T19:50:42.473Z,5.27
2023-03-17T19:53:11.226Z,5.70
2023-03-17T19:55:40.946Z,4.90
2023-03-17T19:58:11.530Z,5.20
2023-03-17T20:00:42.710Z,5.40
2023-03-17T20:03:14.428Z,5.20
2023-03-17T20:05:45.227Z,5.43
2023-03-17T20:08:15.301Z,5.27
2023-03-17T20:10:44.068Z,5.50
2023-03-17T20:13:13.179Z,4.93
2023-03-17T20:15:41.389Z,5.43
2023-03-17T20:18:09.176Z,5.00
2023-03-17T20:20:37.804Z,4.83
2023-03-17T20:23:05.204Z,4.90
2023-03-17T20:25:34.253Z,5.07
2023-03-17T20:28:02.244Z,5.03
2023-03-17T20:30:32.595Z,4.73
2023-03-17T20:33:01.822Z,4.90
2023-03-17T20:35:32.179Z,4.97
2023-03-17T20:38:01.175Z,5.10
2023-03-17T20:40:28.975Z,4.90
2023-03-17T20:42:57.696Z,4.70
2023-03-17T20:45:28.671Z,4.70
2023-03-17T20:47:56.930Z,4.30
2023-03-17T20:50:26.652Z,4.93
2023-03-17T20:52:55.619Z,4.63
2023-03-17T20:55:23.923Z,4.70
2023-03-17T20:57:53.287Z,4.90
2023-03-17T21:00:23.021Z,4.77
2023-03-17T21:02:51.225Z,4.40
2023-03-17T21:05:26.177Z,4.97
2023-03-17T21:07:54.867Z,4.70
2023-03-17T21:10:22.605Z,4.63
2023-03-17T21:12:50.612Z,4.50
2023-03-17T21:15:18.487Z,4.37
2023-03-17T21:17:45.989Z,4.60
2023-03-17T21:20:13.771Z,4.13
2023-03-17T21:22:42.190Z,4.60
2023-03-17T21:25:12.046Z,4.17
2023-03-17T21:27:40.507Z,4.10
2023-03-17T21:30:12.434Z,4.17
2023-03-17T21:32:40.802Z,4.70
2023-03-17T21:35:10.645Z,4.40
2023-03-17T21:37:39.705Z,4.37
2023-03-17T21:40:14.895Z,4.30
2023-03-17T21:42:44.273Z,4.43
2023-03-17T21:45:12.717Z,4.20
2023-03-17T21:47:41.586Z,4.07
2023-03-17T21:50:09.427Z,4.20
2023-03-17T21:52:37.184Z,4.47
2023-03-17T21:55:05.878Z,4.27
2023-03-17T21:57:34.116Z,4.30
2023-03-17T22:00:01.530Z,4.33
2023-03-17T22:02:29.377Z,4.57
2023-03-17T22:04:58.492Z,4.40
2023-03-17T22:07:26.757Z,4.40
2023-03-17T22:09:57.271Z,4.27
2023-03-17T22:12:24.775Z,4.40
2023-03-17T22:14:56.276Z,4.00
2023-03-17T22:17:25.896Z,4.30
2023-03-17T22:19:53.306Z,3.97
2023-03-17T22:22:21.189Z,4.07
2023-03-17T22:24:49.542Z,4.10
2023-03-17T22:27:17.514Z,4.30
2023-03-17T22:29:44.790Z,3.80
2023-03-17T22:32:11.971Z,4.07
2023-03-17T22:34:39.127Z,4.00
2023-03-17T22:37:07.239Z,4.00
2023-03-17T22:39:34.739Z,4.40
2023-03-17T22:42:02.162Z,4.20
2023-03-17T22:44:29.131Z,4.27
2023-03-17T22:46:56.487Z,4.10
2023-03-17T22:49:26.627Z,3.80
2023-03-17T22:51:53.657Z,4.20
2023-03-17T22:54:21.987Z,4.13
2023-03-17T22:56:49.639Z,4.30
2023-03-17T22:59:16.751Z,4.13
2023-03-17T23:01:46.088Z,4.10
2023-03-17T23:04:14.091Z,4.00
2023-03-17T23:06:41.687Z,4.07
2023-03-17T23:09:09.803Z,4.30
2023-03-17T23:11:37.538Z,4.10
2023-03-17T23:14:04.549Z,3.90
2023-03-17T23:16:32.592Z,4.30
2023-03-17T23:18:59.678Z,4.30
2023-03-17T23:21:30.293Z,3.70
2023-03-17T23:23:57.712Z,4.10
2023-03-17T23:26:25.018Z,3.90
2023-03-17T23:28:52.740Z,3.93
2023-03-17T23:31:22.374Z,4.10
2023-03-17T23:33:51.379Z,4.23
2023-03-17T23:36:19.015Z,4.30
2023-03-17T23:38:46.812Z,4.00
2023-03-17T23:41:14.621Z,3.80
2023-03-17T23:43:42.346Z,4.50
2023-03-17T23:46:09.441Z,4.00
2023-03-17T23:48:37.780Z,4.33
2023-03-17T23:51:05.797Z,3.97
2023-03-17T23:53:33.935Z,4.10
2023-03-17T23:56:01.102Z,4.10
2023-03-17T23:58:28.803Z,4.07
